AEE225 LGSK-LGRP
Flight info
| Callsign | AEE225 |
|---|---|
| Flight time | 0h 57m |
| Altitude | 23000 |
| Route | SIGFO M749 ROPOX N132 KEA R19 CODIC |
| Aircraft | A319/M-SDE3FGHIRWY/LB1 |
Departure
| Time | 2026-04-26 21:14 |
|---|---|
| Airport | Skiathos Island National Airport (LGSK) |
Arrival
| Time | 2026-04-26 22:11 |
|---|---|
| Airport | Rhodes International Airport "Diagoras" (LGRP) |
| Time | Latitude | Longitude | Altitude | Speed | Heading |
|---|---|---|---|---|---|
| 2026-04-26 21:04 | 39.17819 | 23.50184 | 58 ft | 0 kts | 331° |
| 2026-04-26 21:07 | 39.17808 | 23.50192 | 56 ft | 4 kts | 320° |
| 2026-04-26 21:08 | 39.17792 | 23.50218 | 53 ft | 4 kts | 284° |
| 2026-04-26 21:08 | 39.17792 | 23.50250 | 52 ft | 4 kts | 242° |
| 2026-04-26 21:08 | 39.17806 | 23.50269 | 52 ft | 1 kts | 196° |
| 2026-04-26 21:10 | 39.17784 | 23.50261 | 59 ft | 8 kts | 195° |
| 2026-04-26 21:10 | 39.17708 | 23.50273 | 56 ft | 14 kts | 115° |
| 2026-04-26 21:10 | 39.17635 | 23.50335 | 60 ft | 19 kts | 199° |
| 2026-04-26 21:11 | 39.17479 | 23.50251 | 50 ft | 29 kts | 197° |
| 2026-04-26 21:11 | 39.17250 | 23.50168 | 31 ft | 32 kts | 199° |
| 2026-04-26 21:11 | 39.17087 | 23.50089 | 21 ft | 21 kts | 205° |
| 2026-04-26 21:11 | 39.17023 | 23.50066 | 19 ft | 8 kts | 78° |
| 2026-04-26 21:12 | 39.17065 | 23.50080 | 20 ft | 0 kts | 13° |
| 2026-04-26 21:12 | 39.17097 | 23.50092 | 22 ft | 4 kts | 17° |
| 2026-04-26 21:12 | 39.17099 | 23.50093 | 22 ft | 0 kts | 17° |
| 2026-04-26 21:13 | 39.17119 | 23.50102 | 25 ft | 22 kts | 18° |
| 2026-04-26 21:13 | 39.17538 | 23.50288 | 53 ft | 105 kts | 19° |
| 2026-04-26 21:13 | 39.18443 | 23.50689 | 207 ft | 155 kts | 18° |
| 2026-04-26 21:14 | 39.19465 | 23.51132 | 824 ft | 157 kts | 18° |
| 2026-04-26 21:14 | 39.20523 | 23.51603 | 1288 ft | 164 kts | 18° |
| 2026-04-26 21:14 | 39.21611 | 23.52083 | 1825 ft | 169 kts | 17° |
| 2026-04-26 21:14 | 39.22810 | 23.52612 | 2086 ft | 193 kts | 18° |
| 2026-04-26 21:15 | 39.24128 | 23.53196 | 2578 ft | 204 kts | 18° |
| 2026-04-26 21:15 | 39.25470 | 23.53795 | 3298 ft | 204 kts | 18° |
| 2026-04-26 21:15 | 39.26802 | 23.54410 | 4044 ft | 203 kts | 23° |
| 2026-04-26 21:15 | 39.27837 | 23.55628 | 4727 ft | 209 kts | 60° |
| 2026-04-26 21:16 | 39.28015 | 23.57491 | 5415 ft | 218 kts | 98° |
| 2026-04-26 21:16 | 39.27549 | 23.59369 | 6185 ft | 220 kts | 106° |
| 2026-04-26 21:16 | 39.27038 | 23.61227 | 7009 ft | 220 kts | 106° |
| 2026-04-26 21:16 | 39.26351 | 23.63011 | 7730 ft | 229 kts | 129° |
| 2026-04-26 21:17 | 39.24985 | 23.64102 | 8432 ft | 239 kts | 166° |
| 2026-04-26 21:17 | 39.23327 | 23.63995 | 9160 ft | 244 kts | 198° |
| 2026-04-26 21:17 | 39.21715 | 23.63276 | 9963 ft | 246 kts | 200° |
| 2026-04-26 21:17 | 39.20093 | 23.62538 | 10674 ft | 249 kts | 200° |
| 2026-04-26 21:18 | 39.18456 | 23.61884 | 11392 ft | 251 kts | 190° |
| 2026-04-26 21:18 | 39.16676 | 23.61766 | 11867 ft | 267 kts | 173° |
| 2026-04-26 21:18 | 39.14747 | 23.62056 | 12172 ft | 291 kts | 172° |
| 2026-04-26 21:18 | 39.12666 | 23.62378 | 12545 ft | 309 kts | 172° |
| 2026-04-26 21:19 | 39.10505 | 23.62709 | 13239 ft | 315 kts | 173° |
| 2026-04-26 21:19 | 39.08312 | 23.63040 | 13988 ft | 319 kts | 173° |
| 2026-04-26 21:19 | 39.06095 | 23.63369 | 14671 ft | 323 kts | 173° |
| 2026-04-26 21:19 | 39.03852 | 23.63701 | 15338 ft | 327 kts | 173° |
| 2026-04-26 21:20 | 39.01581 | 23.64039 | 16006 ft | 331 kts | 174° |
| 2026-04-26 21:20 | 38.99281 | 23.64378 | 16666 ft | 335 kts | 174° |
| 2026-04-26 21:20 | 38.96954 | 23.64719 | 17330 ft | 339 kts | 174° |
| 2026-04-26 21:20 | 38.94598 | 23.65065 | 17977 ft | 343 kts | 174° |
| 2026-04-26 21:21 | 38.92185 | 23.65423 | 18278 ft | 359 kts | 174° |
| 2026-04-26 21:21 | 38.89636 | 23.65799 | 18419 ft | 378 kts | 174° |
| 2026-04-26 21:21 | 38.86957 | 23.66195 | 18591 ft | 393 kts | 174° |
| 2026-04-26 21:21 | 38.84214 | 23.66602 | 19035 ft | 399 kts | 174° |
| 2026-04-26 21:22 | 38.81440 | 23.67013 | 19569 ft | 403 kts | 174° |
| 2026-04-26 21:22 | 38.78638 | 23.67424 | 20119 ft | 406 kts | 174° |
| 2026-04-26 21:22 | 38.75815 | 23.67837 | 20680 ft | 409 kts | 174° |
| 2026-04-26 21:23 | 38.70144 | 23.68663 | 21794 ft | 416 kts | 174° |
| 2026-04-26 21:23 | 38.67260 | 23.69084 | 22330 ft | 419 kts | 175° |
| 2026-04-26 21:23 | 38.64357 | 23.69508 | 22835 ft | 422 kts | 175° |
| 2026-04-26 21:23 | 38.61433 | 23.69936 | 23051 ft | 423 kts | 175° |
| 2026-04-26 21:24 | 38.58528 | 23.70360 | 23094 ft | 419 kts | 175° |
| 2026-04-26 21:24 | 38.55638 | 23.70781 | 23095 ft | 417 kts | 175° |
| 2026-04-26 21:24 | 38.52749 | 23.71199 | 23092 ft | 417 kts | 175° |
| 2026-04-26 21:24 | 38.49871 | 23.71617 | 23099 ft | 417 kts | 175° |
| 2026-04-26 21:25 | 38.46989 | 23.72038 | 23096 ft | 417 kts | 175° |
| 2026-04-26 21:25 | 38.44106 | 23.72461 | 23101 ft | 417 kts | 175° |
| 2026-04-26 21:25 | 38.41220 | 23.72886 | 23098 ft | 417 kts | 175° |
| 2026-04-26 21:25 | 38.38338 | 23.73307 | 23098 ft | 417 kts | 175° |
| 2026-04-26 21:26 | 38.35453 | 23.73721 | 23095 ft | 417 kts | 175° |
| 2026-04-26 21:26 | 38.32571 | 23.74133 | 23090 ft | 417 kts | 175° |
| 2026-04-26 21:26 | 38.29693 | 23.74544 | 23088 ft | 417 kts | 175° |
| 2026-04-26 21:26 | 38.26810 | 23.74959 | 23094 ft | 417 kts | 175° |
| 2026-04-26 21:27 | 38.23929 | 23.75376 | 23092 ft | 417 kts | 175° |
| 2026-04-26 21:27 | 38.21047 | 23.75800 | 23088 ft | 417 kts | 174° |
| 2026-04-26 21:27 | 38.18203 | 23.76568 | 23086 ft | 418 kts | 163° |
| 2026-04-26 21:27 | 38.15508 | 23.77951 | 23080 ft | 419 kts | 153° |
| 2026-04-26 21:28 | 38.13061 | 23.79856 | 23081 ft | 419 kts | 145° |
| 2026-04-26 21:28 | 38.10662 | 23.81969 | 23080 ft | 419 kts | 145° |
| 2026-04-26 21:28 | 38.08260 | 23.84082 | 23080 ft | 419 kts | 145° |
| 2026-04-26 21:28 | 38.05864 | 23.86187 | 23080 ft | 419 kts | 145° |
| 2026-04-26 21:29 | 38.03462 | 23.88297 | 23076 ft | 419 kts | 145° |
| 2026-04-26 21:29 | 38.01062 | 23.90405 | 23078 ft | 419 kts | 145° |
| 2026-04-26 21:29 | 37.98663 | 23.92507 | 23081 ft | 420 kts | 145° |
| 2026-04-26 21:29 | 37.96258 | 23.94610 | 23073 ft | 420 kts | 145° |
| 2026-04-26 21:30 | 37.93856 | 23.96711 | 23068 ft | 420 kts | 145° |
| 2026-04-26 21:30 | 37.91453 | 23.98812 | 23069 ft | 420 kts | 145° |
| 2026-04-26 21:30 | 37.89047 | 24.00914 | 23071 ft | 420 kts | 145° |
| 2026-04-26 21:30 | 37.86643 | 24.03013 | 23070 ft | 420 kts | 145° |
| 2026-04-26 21:31 | 37.84240 | 24.05112 | 23073 ft | 420 kts | 145° |
| 2026-04-26 21:31 | 37.81830 | 24.07213 | 23083 ft | 420 kts | 145° |
| 2026-04-26 21:31 | 37.79428 | 24.09307 | 23082 ft | 420 kts | 145° |
| 2026-04-26 21:31 | 37.77018 | 24.11404 | 23080 ft | 420 kts | 145° |
| 2026-04-26 21:32 | 37.74604 | 24.13502 | 23078 ft | 421 kts | 145° |
| 2026-04-26 21:32 | 37.72191 | 24.15597 | 23077 ft | 421 kts | 145° |
| 2026-04-26 21:32 | 37.69780 | 24.17691 | 23077 ft | 421 kts | 145° |
| 2026-04-26 21:32 | 37.67365 | 24.19788 | 23071 ft | 421 kts | 145° |
| 2026-04-26 21:33 | 37.64953 | 24.21882 | 23069 ft | 421 kts | 145° |
| 2026-04-26 21:33 | 37.62537 | 24.23975 | 23069 ft | 421 kts | 145° |
| 2026-04-26 21:33 | 37.60151 | 24.26041 | 23070 ft | 421 kts | 144° |
| 2026-04-26 21:33 | 37.57918 | 24.28404 | 23068 ft | 420 kts | 134° |
| 2026-04-26 21:34 | 37.56057 | 24.31226 | 23068 ft | 418 kts | 123° |
| 2026-04-26 21:34 | 37.54634 | 24.34408 | 23068 ft | 416 kts | 112° |
| 2026-04-26 21:34 | 37.53650 | 24.37822 | 23067 ft | 414 kts | 105° |
| 2026-04-26 21:34 | 37.52762 | 24.41281 | 23072 ft | 414 kts | 105° |
| 2026-04-26 21:35 | 37.51868 | 24.44732 | 23070 ft | 415 kts | 106° |
| 2026-04-26 21:35 | 37.50965 | 24.48185 | 23070 ft | 415 kts | 106° |
| 2026-04-26 21:35 | 37.50058 | 24.51638 | 23063 ft | 415 kts | 106° |
| 2026-04-26 21:35 | 37.49152 | 24.55088 | 23064 ft | 415 kts | 106° |
| 2026-04-26 21:36 | 37.48248 | 24.58541 | 23068 ft | 415 kts | 106° |
| 2026-04-26 21:36 | 37.47649 | 24.60829 | 23070 ft | 415 kts | 106° |
| 2026-04-26 21:36 | 37.46439 | 24.65447 | 23071 ft | 415 kts | 106° |
| 2026-04-26 21:36 | 37.45531 | 24.68896 | 23074 ft | 415 kts | 106° |
| 2026-04-26 21:37 | 37.44624 | 24.72342 | 23076 ft | 415 kts | 106° |
| 2026-04-26 21:37 | 37.43716 | 24.75796 | 23078 ft | 415 kts | 106° |
| 2026-04-26 21:37 | 37.42817 | 24.79204 | 23078 ft | 415 kts | 106° |
| 2026-04-26 21:37 | 37.41907 | 24.82645 | 23080 ft | 415 kts | 106° |
| 2026-04-26 21:38 | 37.40995 | 24.86087 | 23084 ft | 415 kts | 106° |
| 2026-04-26 21:38 | 37.40081 | 24.89534 | 23081 ft | 415 kts | 106° |
| 2026-04-26 21:38 | 37.39168 | 24.92977 | 23083 ft | 415 kts | 106° |
| 2026-04-26 21:38 | 37.38251 | 24.96422 | 23081 ft | 415 kts | 106° |
| 2026-04-26 21:39 | 37.37332 | 24.99871 | 23080 ft | 415 kts | 106° |
| 2026-04-26 21:39 | 37.36412 | 25.03317 | 23088 ft | 415 kts | 106° |
| 2026-04-26 21:39 | 37.35493 | 25.06755 | 23086 ft | 415 kts | 106° |
| 2026-04-26 21:39 | 37.34571 | 25.10198 | 23083 ft | 416 kts | 106° |
| 2026-04-26 21:40 | 37.33650 | 25.13641 | 23082 ft | 416 kts | 106° |
| 2026-04-26 21:40 | 37.32733 | 25.17085 | 23080 ft | 416 kts | 106° |
| 2026-04-26 21:40 | 37.31816 | 25.20528 | 23079 ft | 416 kts | 106° |
| 2026-04-26 21:40 | 37.30894 | 25.23973 | 23078 ft | 416 kts | 106° |
| 2026-04-26 21:41 | 37.29969 | 25.27415 | 23076 ft | 416 kts | 106° |
| 2026-04-26 21:41 | 37.29043 | 25.30857 | 23074 ft | 416 kts | 106° |
| 2026-04-26 21:41 | 37.28113 | 25.34297 | 23070 ft | 416 kts | 106° |
| 2026-04-26 21:41 | 37.27164 | 25.37741 | 23069 ft | 416 kts | 108° |
| 2026-04-26 21:42 | 37.26139 | 25.41139 | 23079 ft | 417 kts | 109° |
| 2026-04-26 21:42 | 37.25048 | 25.44516 | 23077 ft | 417 kts | 110° |
| 2026-04-26 21:42 | 37.23929 | 25.47869 | 23075 ft | 417 kts | 111° |
| 2026-04-26 21:42 | 37.22806 | 25.51219 | 23077 ft | 417 kts | 110° |
| 2026-04-26 21:43 | 37.21696 | 25.54534 | 23071 ft | 417 kts | 110° |
| 2026-04-26 21:43 | 37.20575 | 25.57881 | 23069 ft | 416 kts | 110° |
| 2026-04-26 21:43 | 37.19452 | 25.61232 | 23072 ft | 416 kts | 110° |
| 2026-04-26 21:43 | 37.18330 | 25.64579 | 23079 ft | 416 kts | 110° |
| 2026-04-26 21:44 | 37.17212 | 25.67925 | 23077 ft | 416 kts | 110° |
| 2026-04-26 21:44 | 37.16097 | 25.71267 | 23073 ft | 415 kts | 110° |
| 2026-04-26 21:44 | 37.14983 | 25.74609 | 23072 ft | 415 kts | 110° |
| 2026-04-26 21:44 | 37.13868 | 25.77948 | 23068 ft | 415 kts | 110° |
| 2026-04-26 21:45 | 37.12749 | 25.81284 | 23069 ft | 415 kts | 110° |
| 2026-04-26 21:45 | 37.11626 | 25.84615 | 23066 ft | 415 kts | 111° |
| 2026-04-26 21:45 | 37.10501 | 25.87945 | 23065 ft | 415 kts | 111° |
| 2026-04-26 21:45 | 37.09381 | 25.91275 | 23059 ft | 415 kts | 110° |
| 2026-04-26 21:46 | 37.08263 | 25.94605 | 23059 ft | 415 kts | 110° |
| 2026-04-26 21:46 | 37.07145 | 25.97931 | 23063 ft | 414 kts | 110° |
| 2026-04-26 21:46 | 37.06022 | 26.01271 | 23058 ft | 414 kts | 110° |
| 2026-04-26 21:46 | 37.04903 | 26.04590 | 23057 ft | 414 kts | 110° |
| 2026-04-26 21:47 | 37.03783 | 26.07907 | 23058 ft | 414 kts | 111° |
| 2026-04-26 21:47 | 37.02676 | 26.11180 | 23056 ft | 414 kts | 111° |
| 2026-04-26 21:47 | 37.01556 | 26.14492 | 23052 ft | 413 kts | 110° |
| 2026-04-26 21:47 | 37.00429 | 26.17801 | 23053 ft | 413 kts | 111° |
| 2026-04-26 21:48 | 36.99300 | 26.21103 | 23052 ft | 413 kts | 111° |
| 2026-04-26 21:48 | 36.98173 | 26.24408 | 23052 ft | 413 kts | 111° |
| 2026-04-26 21:48 | 36.97054 | 26.27712 | 23058 ft | 413 kts | 110° |
| 2026-04-26 21:48 | 36.95938 | 26.31021 | 23055 ft | 413 kts | 110° |
| 2026-04-26 21:49 | 36.94821 | 26.34322 | 23049 ft | 413 kts | 110° |
| 2026-04-26 21:49 | 36.93703 | 26.37625 | 23047 ft | 413 kts | 110° |
| 2026-04-26 21:49 | 36.92585 | 26.40925 | 23040 ft | 412 kts | 110° |
| 2026-04-26 21:49 | 36.91463 | 26.44229 | 23039 ft | 412 kts | 110° |
| 2026-04-26 21:50 | 36.90340 | 26.47525 | 23040 ft | 412 kts | 110° |
| 2026-04-26 21:50 | 36.89578 | 26.49751 | 23036 ft | 412 kts | 110° |
| 2026-04-26 21:50 | 36.88084 | 26.54111 | 23035 ft | 412 kts | 110° |
| 2026-04-26 21:50 | 36.87320 | 26.56338 | 23034 ft | 412 kts | 110° |
| 2026-04-26 21:51 | 36.86193 | 26.59626 | 23043 ft | 412 kts | 110° |
| 2026-04-26 21:51 | 36.85065 | 26.62921 | 23041 ft | 412 kts | 110° |
| 2026-04-26 21:51 | 36.83941 | 26.66205 | 23038 ft | 412 kts | 110° |
| 2026-04-26 21:51 | 36.82825 | 26.69449 | 23035 ft | 412 kts | 110° |
| 2026-04-26 21:52 | 36.81695 | 26.72728 | 23034 ft | 411 kts | 110° |
| 2026-04-26 21:52 | 36.80565 | 26.76008 | 23028 ft | 411 kts | 110° |
| 2026-04-26 21:52 | 36.79436 | 26.79289 | 23028 ft | 411 kts | 110° |
| 2026-04-26 21:52 | 36.78309 | 26.82567 | 23024 ft | 411 kts | 110° |
| 2026-04-26 21:53 | 36.77180 | 26.85840 | 23023 ft | 411 kts | 110° |
| 2026-04-26 21:53 | 36.76050 | 26.89116 | 23030 ft | 411 kts | 110° |
| 2026-04-26 21:53 | 36.74920 | 26.92384 | 23031 ft | 410 kts | 110° |
| 2026-04-26 21:53 | 36.73787 | 26.95650 | 23030 ft | 410 kts | 110° |
| 2026-04-26 21:54 | 36.72649 | 26.98923 | 23029 ft | 410 kts | 110° |
| 2026-04-26 21:54 | 36.71513 | 27.02176 | 23026 ft | 410 kts | 110° |
| 2026-04-26 21:54 | 36.70378 | 27.05434 | 23024 ft | 410 kts | 110° |
| 2026-04-26 21:54 | 36.69245 | 27.08691 | 23022 ft | 410 kts | 110° |
| 2026-04-26 21:55 | 36.68114 | 27.11946 | 23020 ft | 409 kts | 110° |
| 2026-04-26 21:55 | 36.66982 | 27.15201 | 23017 ft | 409 kts | 110° |
| 2026-04-26 21:55 | 36.65847 | 27.18456 | 23031 ft | 409 kts | 110° |
| 2026-04-26 21:55 | 36.64712 | 27.21702 | 23028 ft | 408 kts | 110° |
| 2026-04-26 21:56 | 36.63578 | 27.24937 | 23023 ft | 408 kts | 110° |
| 2026-04-26 21:56 | 36.62443 | 27.28171 | 23022 ft | 407 kts | 110° |
| 2026-04-26 21:56 | 36.61309 | 27.31393 | 23020 ft | 407 kts | 110° |
| 2026-04-26 21:56 | 36.60174 | 27.34618 | 23017 ft | 407 kts | 110° |
| 2026-04-26 21:57 | 36.59039 | 27.37844 | 23009 ft | 406 kts | 110° |
| 2026-04-26 21:57 | 36.57909 | 27.41061 | 23006 ft | 406 kts | 110° |
| 2026-04-26 21:57 | 36.56774 | 27.44287 | 23002 ft | 406 kts | 110° |
| 2026-04-26 21:57 | 36.55649 | 27.47474 | 22665 ft | 401 kts | 110° |
| 2026-04-26 21:58 | 36.54547 | 27.50588 | 22240 ft | 396 kts | 110° |
| 2026-04-26 21:58 | 36.53446 | 27.53701 | 21683 ft | 391 kts | 110° |
| 2026-04-26 21:58 | 36.52357 | 27.56776 | 21027 ft | 386 kts | 110° |
| 2026-04-26 21:58 | 36.51277 | 27.59812 | 20293 ft | 381 kts | 110° |
| 2026-04-26 21:59 | 36.50212 | 27.62805 | 19510 ft | 376 kts | 111° |
| 2026-04-26 21:59 | 36.49163 | 27.65755 | 18750 ft | 371 kts | 111° |
| 2026-04-26 21:59 | 36.48144 | 27.68674 | 17945 ft | 365 kts | 107° |
| 2026-04-26 21:59 | 36.47681 | 27.71700 | 17109 ft | 353 kts | 87° |
| 2026-04-26 22:00 | 36.47814 | 27.74718 | 16238 ft | 348 kts | 83° |
| 2026-04-26 22:00 | 36.48062 | 27.77689 | 15393 ft | 343 kts | 76° |
| 2026-04-26 22:00 | 36.48665 | 27.80534 | 14591 ft | 338 kts | 69° |
| 2026-04-26 22:00 | 36.49505 | 27.83240 | 13802 ft | 334 kts | 66° |
| 2026-04-26 22:01 | 36.50390 | 27.85900 | 12944 ft | 331 kts | 65° |
| 2026-04-26 22:01 | 36.51270 | 27.88527 | 12133 ft | 327 kts | 65° |
| 2026-04-26 22:01 | 36.52141 | 27.91125 | 11351 ft | 324 kts | 65° |
| 2026-04-26 22:01 | 36.53002 | 27.93688 | 10598 ft | 320 kts | 65° |
| 2026-04-26 22:02 | 36.53845 | 27.96202 | 10232 ft | 304 kts | 65° |
| 2026-04-26 22:02 | 36.54630 | 27.98554 | 10008 ft | 287 kts | 65° |
| 2026-04-26 22:02 | 36.55384 | 28.00821 | 9496 ft | 281 kts | 65° |
| 2026-04-26 22:02 | 36.56124 | 28.03061 | 8916 ft | 280 kts | 65° |
| 2026-04-26 22:03 | 36.56854 | 28.05306 | 8349 ft | 278 kts | 65° |
| 2026-04-26 22:03 | 36.57549 | 28.07469 | 8220 ft | 260 kts | 65° |
| 2026-04-26 22:03 | 36.58193 | 28.09493 | 8093 ft | 244 kts | 65° |
| 2026-04-26 22:03 | 36.58788 | 28.11387 | 7938 ft | 228 kts | 65° |
| 2026-04-26 22:04 | 36.59350 | 28.13195 | 7560 ft | 222 kts | 65° |
| 2026-04-26 22:04 | 36.59852 | 28.15009 | 7111 ft | 222 kts | 72° |
| 2026-04-26 22:04 | 36.60171 | 28.16883 | 6662 ft | 222 kts | 77° |
| 2026-04-26 22:04 | 36.60292 | 28.18784 | 6181 ft | 222 kts | 90° |
| 2026-04-26 22:05 | 36.59934 | 28.20665 | 5590 ft | 224 kts | 102° |
| 2026-04-26 22:05 | 36.59305 | 28.22421 | 5032 ft | 226 kts | 116° |
| 2026-04-26 22:05 | 36.58306 | 28.23950 | 4534 ft | 225 kts | 139° |
| 2026-04-26 22:05 | 36.57016 | 28.24857 | 4409 ft | 208 kts | 155° |
| 2026-04-26 22:06 | 36.55642 | 28.25229 | 4316 ft | 193 kts | 181° |
| 2026-04-26 22:06 | 36.54388 | 28.24935 | 4178 ft | 188 kts | 198° |
| 2026-04-26 22:06 | 36.53073 | 28.24569 | 3724 ft | 197 kts | 192° |
| 2026-04-26 22:06 | 36.51721 | 28.24253 | 3329 ft | 198 kts | 192° |
| 2026-04-26 22:07 | 36.50369 | 28.23944 | 2932 ft | 197 kts | 192° |
| 2026-04-26 22:07 | 36.49044 | 28.23578 | 2597 ft | 192 kts | 199° |
| 2026-04-26 22:07 | 36.47810 | 28.23001 | 2362 ft | 187 kts | 207° |
| 2026-04-26 22:07 | 36.46677 | 28.22313 | 2148 ft | 172 kts | 211° |
| 2026-04-26 22:08 | 36.45697 | 28.21634 | 1952 ft | 153 kts | 217° |
| 2026-04-26 22:08 | 36.44884 | 28.20874 | 1688 ft | 140 kts | 227° |
| 2026-04-26 22:08 | 36.44267 | 28.19986 | 1445 ft | 132 kts | 243° |
| 2026-04-26 22:08 | 36.43820 | 28.19000 | 1307 ft | 130 kts | 249° |
| 2026-04-26 22:09 | 36.43448 | 28.17982 | 1180 ft | 129 kts | 251° |
| 2026-04-26 22:09 | 36.43122 | 28.16947 | 1018 ft | 128 kts | 253° |
| 2026-04-26 22:09 | 36.42773 | 28.15924 | 918 ft | 131 kts | 246° |
| 2026-04-26 22:09 | 36.42372 | 28.14911 | 774 ft | 130 kts | 253° |
| 2026-04-26 22:10 | 36.42074 | 28.13861 | 622 ft | 130 kts | 254° |
| 2026-04-26 22:10 | 36.41775 | 28.12804 | 474 ft | 130 kts | 251° |
| 2026-04-26 22:10 | 36.41457 | 28.11773 | 317 ft | 126 kts | 254° |
| 2026-04-26 22:10 | 36.41166 | 28.10752 | 160 ft | 124 kts | 251° |
| 2026-04-26 22:11 | 36.40881 | 28.09792 | 30 ft | 107 kts | 256° |
| 2026-04-26 22:11 | 36.40703 | 28.09169 | 31 ft | 41 kts | 250° |
| 2026-04-26 22:11 | 36.40601 | 28.08821 | 28 ft | 46 kts | 250° |
| 2026-04-26 22:11 | 36.40519 | 28.08622 | 28 ft | 19 kts | 191° |
| 2026-04-26 22:12 | 36.40438 | 28.08749 | 28 ft | 17 kts | 115° |
| 2026-04-26 22:12 | 36.40429 | 28.08770 | 28 ft | 0 kts | 123° |
| 2026-04-26 22:12 | 36.40428 | 28.08771 | 28 ft | 0 kts | 123° |
| 2026-04-26 22:14 | 36.40428 | 28.08772 | 28 ft | 1 kts | 123° |
| 2026-04-26 22:14 | 36.40410 | 28.08804 | 28 ft | 5 kts | 124° |
| 2026-04-26 22:14 | 36.40402 | 28.08830 | 28 ft | 0 kts | 99° |
| 2026-04-26 22:17 | 36.40399 | 28.08872 | 28 ft | 7 kts | 92° |
| 2026-04-26 22:17 | 36.40397 | 28.08954 | 28 ft | 3 kts | 84° |
| 2026-04-26 22:18 | 36.40380 | 28.09009 | 28 ft | 10 kts | 167° |